sensor_id;sensor_type;location;lat;lon;timestamp;temperature;humidity
24049;DHT22;12250;50.956;4.746;2023-08-17T00:01:47;19.40;99.90
24049;DHT22;12250;50.956;4.746;2023-08-17T00:04:13;19.40;99.90
24049;DHT22;12250;50.956;4.746;2023-08-17T00:06:39;19.40;99.90
24049;DHT22;12250;50.956;4.746;2023-08-17T00:09:04;19.40;99.90
24049;DHT22;12250;50.956;4.746;2023-08-17T00:11:30;19.50;99.90
24049;DHT22;12250;50.956;4.746;2023-08-17T00:13:56;19.40;99.90
24049;DHT22;12250;50.956;4.746;2023-08-17T00:16:21;19.50;99.90
24049;DHT22;12250;50.956;4.746;2023-08-17T00:18:49;19.60;99.90
24049;DHT22;12250;50.956;4.746;2023-08-17T00:21:14;19.60;99.90
24049;DHT22;12250;50.956;4.746;2023-08-17T00:23:40;19.50;99.90
24049;DHT22;12250;50.956;4.746;2023-08-17T00:26:06;19.60;99.90
24049;DHT22;12250;50.956;4.746;2023-08-17T00:28:32;19.60;99.90
24049;DHT22;12250;50.956;4.746;2023-08-17T00:30:59;19.50;99.90
24049;DHT22;12250;50.956;4.746;2023-08-17T00:33:25;19.50;99.90
24049;DHT22;12250;50.956;4.746;2023-08-17T00:35:51;19.50;99.90
24049;DHT22;12250;50.956;4.746;2023-08-17T00:38:16;19.50;99.90
24049;DHT22;12250;50.956;4.746;2023-08-17T00:40:42;19.50;99.90
24049;DHT22;12250;50.956;4.746;2023-08-17T00:43:09;19.60;99.90
24049;DHT22;12250;50.956;4.746;2023-08-17T00:45:35;19.60;99.90
24049;DHT22;12250;50.956;4.746;2023-08-17T00:48:01;19.60;99.90
24049;DHT22;12250;50.956;4.746;2023-08-17T00:50:28;19.60;99.90
24049;DHT22;12250;50.956;4.746;2023-08-17T00:52:54;19.70;99.90
24049;DHT22;12250;50.956;4.746;2023-08-17T00:55:21;19.70;99.90
24049;DHT22;12250;50.956;4.746;2023-08-17T00:57:47;19.80;99.90
24049;DHT22;12250;50.956;4.746;2023-08-17T01:00:13;19.80;99.90
24049;DHT22;12250;50.956;4.746;2023-08-17T01:02:42;19.70;99.90
24049;DHT22;12250;50.956;4.746;2023-08-17T01:05:08;19.80;99.90
24049;DHT22;12250;50.956;4.746;2023-08-17T01:07:35;19.80;99.90
24049;DHT22;12250;50.956;4.746;2023-08-17T01:10:01;19.80;99.90
24049;DHT22;12250;50.956;4.746;2023-08-17T01:15:12;19.90;99.90
24049;DHT22;12250;50.956;4.746;2023-08-17T01:17:48;19.90;99.90
24049;DHT22;12250;50.956;4.746;2023-08-17T01:20:18;19.90;99.90
24049;DHT22;12250;50.956;4.746;2023-08-17T01:22:45;19.90;99.90
24049;DHT22;12250;50.956;4.746;2023-08-17T01:25:13;19.80;99.90
24049;DHT22;12250;50.956;4.746;2023-08-17T01:27:45;19.80;99.90
24049;DHT22;12250;50.956;4.746;2023-08-17T01:30:15;19.90;99.90
24049;DHT22;12250;50.956;4.746;2023-08-17T01:35:33;19.80;99.90
24049;DHT22;12250;50.956;4.746;2023-08-17T01:38:02;19.80;99.90
24049;DHT22;12250;50.956;4.746;2023-08-17T01:40:34;19.80;99.90
24049;DHT22;12250;50.956;4.746;2023-08-17T01:43:01;19.70;99.90
24049;DHT22;12250;50.956;4.746;2023-08-17T01:45:27;19.60;99.90
24049;DHT22;12250;50.956;4.746;2023-08-17T01:47:54;19.50;99.90
24049;DHT22;12250;50.956;4.746;2023-08-17T01:50:20;19.50;99.90
24049;DHT22;12250;50.956;4.746;2023-08-17T01:52:45;19.40;99.90
24049;DHT22;12250;50.956;4.746;2023-08-17T01:55:11;19.30;99.90
24049;DHT22;12250;50.956;4.746;2023-08-17T01:57:37;19.20;99.90
24049;DHT22;12250;50.956;4.746;2023-08-17T02:00:04;19.10;99.90
24049;DHT22;12250;50.956;4.746;2023-08-17T02:02:31;19.10;99.90
24049;DHT22;12250;50.956;4.746;2023-08-17T02:04:56;19.00;99.90
24049;DHT22;12250;50.956;4.746;2023-08-17T02:07:22;19.00;99.90
24049;DHT22;12250;50.956;4.746;2023-08-17T02:09:48;19.00;99.90
24049;DHT22;12250;50.956;4.746;2023-08-17T02:12:13;19.10;99.90
24049;DHT22;12250;50.956;4.746;2023-08-17T02:14:39;19.00;99.90
24049;DHT22;12250;50.956;4.746;2023-08-17T02:17:05;19.00;99.90
24049;DHT22;12250;50.956;4.746;2023-08-17T02:19:31;18.90;99.90
24049;DHT22;12250;50.956;4.746;2023-08-17T02:21:58;18.90;99.90
24049;DHT22;12250;50.956;4.746;2023-08-17T02:24:24;18.90;99.90
24049;DHT22;12250;50.956;4.746;2023-08-17T02:26:50;18.90;99.90
24049;DHT22;12250;50.956;4.746;2023-08-17T02:29:16;18.90;99.90
24049;DHT22;12250;50.956;4.746;2023-08-17T02:31:42;18.80;99.90
24049;DHT22;12250;50.956;4.746;2023-08-17T02:34:07;18.80;99.90
24049;DHT22;12250;50.956;4.746;2023-08-17T02:36:35;18.90;99.90
24049;DHT22;12250;50.956;4.746;2023-08-17T02:39:01;18.90;99.90
24049;DHT22;12250;50.956;4.746;2023-08-17T02:41:26;18.90;99.90
24049;DHT22;12250;50.956;4.746;2023-08-17T02:43:52;18.90;99.90
24049;DHT22;12250;50.956;4.746;2023-08-17T02:46:18;18.90;99.90
24049;DHT22;12250;50.956;4.746;2023-08-17T02:48:43;18.80;99.90
24049;DHT22;12250;50.956;4.746;2023-08-17T02:51:09;18.80;99.90
24049;DHT22;12250;50.956;4.746;2023-08-17T02:53:35;18.70;99.90
24049;DHT22;12250;50.956;4.746;2023-08-17T02:56:01;18.50;99.90
24049;DHT22;12250;50.956;4.746;2023-08-17T02:58:27;18.50;99.90
24049;DHT22;12250;50.956;4.746;2023-08-17T03:00:53;18.40;99.90
24049;DHT22;12250;50.956;4.746;2023-08-17T03:03:19;18.40;99.90
24049;DHT22;12250;50.956;4.746;2023-08-17T03:05:44;18.40;99.90
24049;DHT22;12250;50.956;4.746;2023-08-17T03:08:10;18.40;99.90
24049;DHT22;12250;50.956;4.746;2023-08-17T03:10:37;18.40;99.90
24049;DHT22;12250;50.956;4.746;2023-08-17T03:13:03;18.50;99.90
24049;DHT22;12250;50.956;4.746;2023-08-17T03:15:29;18.50;99.90
24049;DHT22;12250;50.956;4.746;2023-08-17T03:17:54;18.60;99.90
24049;DHT22;12250;50.956;4.746;2023-08-17T03:20:20;18.50;99.90
24049;DHT22;12250;50.956;4.746;2023-08-17T03:22:46;18.50;99.90
24049;DHT22;12250;50.956;4.746;2023-08-17T03:25:11;18.60;99.90
24049;DHT22;12250;50.956;4.746;2023-08-17T03:27:37;18.50;99.90
24049;DHT22;12250;50.956;4.746;2023-08-17T03:30:04;18.50;99.90
24049;DHT22;12250;50.956;4.746;2023-08-17T03:32:30;18.50;99.90
24049;DHT22;12250;50.956;4.746;2023-08-17T03:34:56;18.60;99.90
24049;DHT22;12250;50.956;4.746;2023-08-17T03:37:21;18.60;99.90
24049;DHT22;12250;50.956;4.746;2023-08-17T03:39:47;18.60;99.90
24049;DHT22;12250;50.956;4.746;2023-08-17T03:42:13;18.70;99.90
24049;DHT22;12250;50.956;4.746;2023-08-17T03:44:38;18.70;99.90
24049;DHT22;12250;50.956;4.746;2023-08-17T03:47:04;18.70;99.90
24049;DHT22;12250;50.956;4.746;2023-08-17T03:49:30;18.70;99.90
24049;DHT22;12250;50.956;4.746;2023-08-17T03:51:55;18.80;99.90
24049;DHT22;12250;50.956;4.746;2023-08-17T03:54:21;18.70;99.90
24049;DHT22;12250;50.956;4.746;2023-08-17T03:56:47;18.70;99.90
24049;DHT22;12250;50.956;4.746;2023-08-17T03:59:13;18.70;99.90
24049;DHT22;12250;50.956;4.746;2023-08-17T04:01:39;18.80;99.90
24049;DHT22;12250;50.956;4.746;2023-08-17T04:04:04;18.60;99.90
24049;DHT22;12250;50.956;4.746;2023-08-17T04:06:30;18.60;99.90
24049;DHT22;12250;50.956;4.746;2023-08-17T04:08:56;18.60;99.90
24049;DHT22;12250;50.956;4.746;2023-08-17T04:11:22;18.60;99.90
24049;DHT22;12250;50.956;4.746;2023-08-17T04:13:48;18.60;99.90
24049;DHT22;12250;50.956;4.746;2023-08-17T04:16:13;18.60;99.90
24049;DHT22;12250;50.956;4.746;2023-08-17T04:18:39;18.60;99.90
24049;DHT22;12250;50.956;4.746;2023-08-17T04:21:05;18.70;99.90
24049;DHT22;12250;50.956;4.746;2023-08-17T04:23:30;18.70;99.90
24049;DHT22;12250;50.956;4.746;2023-08-17T04:25:56;18.70;99.90
24049;DHT22;12250;50.956;4.746;2023-08-17T04:28:22;18.70;99.90
24049;DHT22;12250;50.956;4.746;2023-08-17T04:30:47;18.70;99.90
24049;DHT22;12250;50.956;4.746;2023-08-17T04:33:13;18.70;99.90
24049;DHT22;12250;50.956;4.746;2023-08-17T04:35:39;18.70;99.90
24049;DHT22;12250;50.956;4.746;2023-08-17T04:38:05;18.70;99.90
24049;DHT22;12250;50.956;4.746;2023-08-17T04:40:31;18.70;99.90
24049;DHT22;12250;50.956;4.746;2023-08-17T04:42:57;18.60;99.90
24049;DHT22;12250;50.956;4.746;2023-08-17T04:45:23;18.70;99.90
24049;DHT22;12250;50.956;4.746;2023-08-17T04:47:49;18.70;99.90
24049;DHT22;12250;50.956;4.746;2023-08-17T04:50:15;18.80;99.90
24049;DHT22;12250;50.956;4.746;2023-08-17T04:52:45;18.80;99.90
24049;DHT22;12250;50.956;4.746;2023-08-17T04:55:11;18.80;99.90
24049;DHT22;12250;50.956;4.746;2023-08-17T04:57:37;18.70;99.90
24049;DHT22;12250;50.956;4.746;2023-08-17T05:00:03;18.80;99.90
24049;DHT22;12250;50.956;4.746;2023-08-17T05:02:29;18.80;99.90
24049;DHT22;12250;50.956;4.746;2023-08-17T05:04:54;18.80;99.90
24049;DHT22;12250;50.956;4.746;2023-08-17T05:07:20;18.70;99.90
24049;DHT22;12250;50.956;4.746;2023-08-17T05:09:46;18.70;99.90
24049;DHT22;12250;50.956;4.746;2023-08-17T05:12:11;18.80;99.90
24049;DHT22;12250;50.956;4.746;2023-08-17T05:14:37;18.80;99.90
24049;DHT22;12250;50.956;4.746;2023-08-17T05:17:03;18.80;99.90
24049;DHT22;12250;50.956;4.746;2023-08-17T05:19:29;18.80;99.90
24049;DHT22;12250;50.956;4.746;2023-08-17T05:21:54;18.90;99.90
24049;DHT22;12250;50.956;4.746;2023-08-17T05:24:20;18.90;99.90
24049;DHT22;12250;50.956;4.746;2023-08-17T05:26:46;19.00;99.90
24049;DHT22;12250;50.956;4.746;2023-08-17T05:29:12;19.10;99.90
24049;DHT22;12250;50.956;4.746;2023-08-17T05:31:37;19.10;99.90
24049;DHT22;12250;50.956;4.746;2023-08-17T05:34:03;19.10;99.90
24049;DHT22;12250;50.956;4.746;2023-08-17T05:36:29;19.10;99.90
24049;DHT22;12250;50.956;4.746;2023-08-17T05:38:55;19.10;99.90
24049;DHT22;12250;50.956;4.746;2023-08-17T05:41:20;19.10;99.90
24049;DHT22;12250;50.956;4.746;2023-08-17T05:43:47;19.00;99.90
24049;DHT22;12250;50.956;4.746;2023-08-17T05:46:13;19.10;99.90
24049;DHT22;12250;50.956;4.746;2023-08-17T05:48:39;19.10;99.90
24049;DHT22;12250;50.956;4.746;2023-08-17T05:51:06;19.20;99.90
24049;DHT22;12250;50.956;4.746;2023-08-17T05:53:32;19.10;99.90
24049;DHT22;12250;50.956;4.746;2023-08-17T05:55:58;19.20;99.90
24049;DHT22;12250;50.956;4.746;2023-08-17T05:58:23;19.20;99.90
24049;DHT22;12250;50.956;4.746;2023-08-17T06:00:49;19.30;99.90
24049;DHT22;12250;50.956;4.746;2023-08-17T06:03:15;19.40;99.90
24049;DHT22;12250;50.956;4.746;2023-08-17T06:05:41;19.50;99.90
24049;DHT22;12250;50.956;4.746;2023-08-17T06:08:07;19.40;99.90
24049;DHT22;12250;50.956;4.746;2023-08-17T06:10:32;19.50;99.90
24049;DHT22;12250;50.956;4.746;2023-08-17T06:12:58;19.50;99.90
24049;DHT22;12250;50.956;4.746;2023-08-17T06:15:24;19.40;99.90
24049;DHT22;12250;50.956;4.746;2023-08-17T06:17:50;19.40;99.90
24049;DHT22;12250;50.956;4.746;2023-08-17T06:20:17;19.50;99.90
24049;DHT22;12250;50.956;4.746;2023-08-17T06:22:43;19.60;99.90
24049;DHT22;12250;50.956;4.746;2023-08-17T06:25:09;19.80;99.90
24049;DHT22;12250;50.956;4.746;2023-08-17T06:27:36;19.60;99.90
24049;DHT22;12250;50.956;4.746;2023-08-17T06:30:02;19.60;99.90
24049;DHT22;12250;50.956;4.746;2023-08-17T06:32:29;19.50;99.90
24049;DHT22;12250;50.956;4.746;2023-08-17T06:34:55;19.60;99.90
24049;DHT22;12250;50.956;4.746;2023-08-17T06:37:21;19.70;99.90
24049;DHT22;12250;50.956;4.746;2023-08-17T06:39:47;19.70;99.90
24049;DHT22;12250;50.956;4.746;2023-08-17T06:42:12;19.60;99.90
24049;DHT22;12250;50.956;4.746;2023-08-17T06:44:38;19.60;99.90
24049;DHT22;12250;50.956;4.746;2023-08-17T06:47:04;19.80;99.90
24049;DHT22;12250;50.956;4.746;2023-08-17T06:49:30;19.80;99.90
24049;DHT22;12250;50.956;4.746;2023-08-17T06:51:56;19.80;99.90
24049;DHT22;12250;50.956;4.746;2023-08-17T06:54:21;19.70;99.90
24049;DHT22;12250;50.956;4.746;2023-08-17T06:56:47;19.50;99.90
24049;DHT22;12250;50.956;4.746;2023-08-17T06:59:13;19.30;99.90
24049;DHT22;12250;50.956;4.746;2023-08-17T07:01:39;19.10;99.90
24049;DHT22;12250;50.956;4.746;2023-08-17T07:04:04;19.20;99.90
24049;DHT22;12250;50.956;4.746;2023-08-17T07:06:30;19.40;99.90
24049;DHT22;12250;50.956;4.746;2023-08-17T07:08:56;19.50;99.90
24049;DHT22;12250;50.956;4.746;2023-08-17T07:11:22;19.80;99.90
24049;DHT22;12250;50.956;4.746;2023-08-17T07:13:47;19.90;99.90
24049;DHT22;12250;50.956;4.746;2023-08-17T07:16:13;20.10;99.90
24049;DHT22;12250;50.956;4.746;2023-08-17T07:18:39;20.30;99.90
24049;DHT22;12250;50.956;4.746;2023-08-17T07:21:05;20.30;99.90
24049;DHT22;12250;50.956;4.746;2023-08-17T07:23:31;20.40;99.90
24049;DHT22;12250;50.956;4.746;2023-08-17T07:25:58;20.40;99.90
24049;DHT22;12250;50.956;4.746;2023-08-17T07:28:24;20.40;99.90
24049;DHT22;12250;50.956;4.746;2023-08-17T07:30:49;20.50;99.90
24049;DHT22;12250;50.956;4.746;2023-08-17T07:33:15;20.60;99.90
24049;DHT22;12250;50.956;4.746;2023-08-17T07:35:40;20.70;99.90
24049;DHT22;12250;50.956;4.746;2023-08-17T07:38:06;20.80;99.90
24049;DHT22;12250;50.956;4.746;2023-08-17T07:40:32;20.80;99.90
24049;DHT22;12250;50.956;4.746;2023-08-17T07:42:57;20.90;99.90
24049;DHT22;12250;50.956;4.746;2023-08-17T07:45:23;21.00;99.90
24049;DHT22;12250;50.956;4.746;2023-08-17T07:47:49;21.10;99.90
24049;DHT22;12250;50.956;4.746;2023-08-17T07:50:14;21.10;99.90
24049;DHT22;12250;50.956;4.746;2023-08-17T07:52:40;21.00;99.90
24049;DHT22;12250;50.956;4.746;2023-08-17T07:55:06;21.20;99.90
24049;DHT22;12250;50.956;4.746;2023-08-17T07:57:32;21.20;99.90
24049;DHT22;12250;50.956;4.746;2023-08-17T07:59:58;21.10;99.90
24049;DHT22;12250;50.956;4.746;2023-08-17T08:02:23;21.20;99.90
24049;DHT22;12250;50.956;4.746;2023-08-17T08:04:49;21.60;99.90
24049;DHT22;12250;50.956;4.746;2023-08-17T08:07:14;21.90;99.90
24049;DHT22;12250;50.956;4.746;2023-08-17T08:09:40;21.90;99.90
24049;DHT22;12250;50.956;4.746;2023-08-17T08:12:06;22.00;99.90
24049;DHT22;12250;50.956;4.746;2023-08-17T08:14:34;22.00;99.90
24049;DHT22;12250;50.956;4.746;2023-08-17T08:16:59;21.90;99.90
24049;DHT22;12250;50.956;4.746;2023-08-17T08:19:25;21.90;99.90
24049;DHT22;12250;50.956;4.746;2023-08-17T08:21:51;22.10;99.90
24049;DHT22;12250;50.956;4.746;2023-08-17T08:24:16;22.30;99.90
24049;DHT22;12250;50.956;4.746;2023-08-17T08:26:42;22.60;99.90
24049;DHT22;12250;50.956;4.746;2023-08-17T08:29:08;22.80;99.90
24049;DHT22;12250;50.956;4.746;2023-08-17T08:31:34;22.90;99.90
24049;DHT22;12250;50.956;4.746;2023-08-17T08:33:59;23.10;99.90
24049;DHT22;12250;50.956;4.746;2023-08-17T08:36:25;23.50;99.90
24049;DHT22;12250;50.956;4.746;2023-08-17T08:38:51;23.50;99.90
24049;DHT22;12250;50.956;4.746;2023-08-17T08:41:17;23.60;99.90
24049;DHT22;12250;50.956;4.746;2023-08-17T08:43:43;24.00;99.90
24049;DHT22;12250;50.956;4.746;2023-08-17T08:46:09;24.30;99.90
24049;DHT22;12250;50.956;4.746;2023-08-17T08:48:35;24.50;99.90
24049;DHT22;12250;50.956;4.746;2023-08-17T08:51:03;24.40;99.90
24049;DHT22;12250;50.956;4.746;2023-08-17T08:53:44;24.20;99.90
24049;DHT22;12250;50.956;4.746;2023-08-17T08:56:15;24.10;99.90
24049;DHT22;12250;50.956;4.746;2023-08-17T08:58:45;23.80;99.90
24049;DHT22;12250;50.956;4.746;2023-08-17T09:01:12;23.70;99.90
24049;DHT22;12250;50.956;4.746;2023-08-17T09:03:38;23.60;99.90
24049;DHT22;12250;50.956;4.746;2023-08-17T09:06:04;23.40;99.90
24049;DHT22;12250;50.956;4.746;2023-08-17T09:08:30;23.10;99.90
24049;DHT22;12250;50.956;4.746;2023-08-17T09:10:56;22.90;99.90
24049;DHT22;12250;50.956;4.746;2023-08-17T09:13:23;22.60;99.90
24049;DHT22;12250;50.956;4.746;2023-08-17T09:15:48;22.70;99.90
24049;DHT22;12250;50.956;4.746;2023-08-17T09:18:15;22.80;99.90
24049;DHT22;12250;50.956;4.746;2023-08-17T09:20:43;22.80;99.90
24049;DHT22;12250;50.956;4.746;2023-08-17T09:23:18;23.00;99.90
24049;DHT22;12250;50.956;4.746;2023-08-17T09:25:49;23.20;99.90
24049;DHT22;12250;50.956;4.746;2023-08-17T09:28:18;23.40;99.90
24049;DHT22;12250;50.956;4.746;2023-08-17T09:30:54;23.60;99.90
24049;DHT22;12250;50.956;4.746;2023-08-17T09:33:25;23.90;99.90
24049;DHT22;12250;50.956;4.746;2023-08-17T09:35:52;24.30;99.90
24049;DHT22;12250;50.956;4.746;2023-08-17T09:38:18;24.30;99.90
24049;DHT22;12250;50.956;4.746;2023-08-17T09:40:45;24.10;99.90
24049;DHT22;12250;50.956;4.746;2023-08-17T09:43:11;24.10;99.90
24049;DHT22;12250;50.956;4.746;2023-08-17T09:45:38;24.20;99.90
24049;DHT22;12250;50.956;4.746;2023-08-17T09:48:05;24.10;99.90
24049;DHT22;12250;50.956;4.746;2023-08-17T09:50:31;24.20;99.90
24049;DHT22;12250;50.956;4.746;2023-08-17T09:52:57;24.00;99.90
24049;DHT22;12250;50.956;4.746;2023-08-17T09:55:23;24.10;99.90
24049;DHT22;12250;50.956;4.746;2023-08-17T09:57:50;24.10;99.90
24049;DHT22;12250;50.956;4.746;2023-08-17T10:00:16;24.20;99.90
24049;DHT22;12250;50.956;4.746;2023-08-17T10:02:45;24.30;99.90
24049;DHT22;12250;50.956;4.746;2023-08-17T10:05:17;24.10;99.90
24049;DHT22;12250;50.956;4.746;2023-08-17T10:07:48;24.40;99.90
24049;DHT22;12250;50.956;4.746;2023-08-17T10:10:18;24.70;99.90
24049;DHT22;12250;50.956;4.746;2023-08-17T10:15:34;24.60;99.90
24049;DHT22;12250;50.956;4.746;2023-08-17T10:18:22;24.60;99.90
24049;DHT22;12250;50.956;4.746;2023-08-17T10:21:01;24.80;99.90
24049;DHT22;12250;50.956;4.746;2023-08-17T10:23:28;25.30;99.90
24049;DHT22;12250;50.956;4.746;2023-08-17T10:25:53;25.60;99.90
24049;DHT22;12250;50.956;4.746;2023-08-17T10:28:21;25.80;99.90
24049;DHT22;12250;50.956;4.746;2023-08-17T10:30:48;25.80;99.90
24049;DHT22;12250;50.956;4.746;2023-08-17T10:33:14;25.60;99.90
24049;DHT22;12250;50.956;4.746;2023-08-17T10:35:41;25.60;99.90
24049;DHT22;12250;50.956;4.746;2023-08-17T10:38:10;25.20;99.90
24049;DHT22;12250;50.956;4.746;2023-08-17T10:40:39;25.20;99.90
24049;DHT22;12250;50.956;4.746;2023-08-17T10:43:05;25.30;99.90
24049;DHT22;12250;50.956;4.746;2023-08-17T10:45:32;25.50;99.90
24049;DHT22;12250;50.956;4.746;2023-08-17T10:48:26;25.40;99.90
24049;DHT22;12250;50.956;4.746;2023-08-17T10:51:01;25.50;99.90
24049;DHT22;12250;50.956;4.746;2023-08-17T10:53:27;25.00;99.90
24049;DHT22;12250;50.956;4.746;2023-08-17T10:55:58;25.00;99.90
24049;DHT22;12250;50.956;4.746;2023-08-17T10:58:24;24.90;99.90
24049;DHT22;12250;50.956;4.746;2023-08-17T11:00:54;24.70;99.90
24049;DHT22;12250;50.956;4.746;2023-08-17T11:03:22;24.60;99.90
24049;DHT22;12250;50.956;4.746;2023-08-17T11:05:53;24.50;99.90
24049;DHT22;12250;50.956;4.746;2023-08-17T11:08:32;24.70;99.90
24049;DHT22;12250;50.956;4.746;2023-08-17T11:11:07;24.70;99.90
24049;DHT22;12250;50.956;4.746;2023-08-17T11:13:36;24.60;99.90
24049;DHT22;12250;50.956;4.746;2023-08-17T11:16:04;24.50;99.90
24049;DHT22;12250;50.956;4.746;2023-08-17T11:18:33;24.60;99.90
24049;DHT22;12250;50.956;4.746;2023-08-17T11:21:03;24.70;99.90
24049;DHT22;12250;50.956;4.746;2023-08-17T11:23:30;24.70;99.90
24049;DHT22;12250;50.956;4.746;2023-08-17T11:25:57;24.70;99.90
24049;DHT22;12250;50.956;4.746;2023-08-17T11:28:23;24.80;99.90
24049;DHT22;12250;50.956;4.746;2023-08-17T11:30:57;25.20;99.90
24049;DHT22;12250;50.956;4.746;2023-08-17T11:33:25;25.40;99.90
24049;DHT22;12250;50.956;4.746;2023-08-17T11:35:53;25.70;99.90
24049;DHT22;12250;50.956;4.746;2023-08-17T11:38:19;25.80;99.90
24049;DHT22;12250;50.956;4.746;2023-08-17T11:40:45;25.60;99.90
24049;DHT22;12250;50.956;4.746;2023-08-17T11:43:11;25.60;99.90
24049;DHT22;12250;50.956;4.746;2023-08-17T11:45:36;25.40;99.90
24049;DHT22;12250;50.956;4.746;2023-08-17T11:48:02;25.30;99.90
24049;DHT22;12250;50.956;4.746;2023-08-17T11:50:29;25.40;99.90
24049;DHT22;12250;50.956;4.746;2023-08-17T11:52:54;25.60;99.90
24049;DHT22;12250;50.956;4.746;2023-08-17T11:55:20;25.10;99.90
24049;DHT22;12250;50.956;4.746;2023-08-17T11:57:46;25.00;99.90
24049;DHT22;12250;50.956;4.746;2023-08-17T12:00:18;24.60;99.90
24049;DHT22;12250;50.956;4.746;2023-08-17T12:02:49;24.40;99.90
24049;DHT22;12250;50.956;4.746;2023-08-17T12:05:22;24.40;99.90
24049;DHT22;12250;50.956;4.746;2023-08-17T12:07:53;24.50;99.90
24049;DHT22;12250;50.956;4.746;2023-08-17T12:10:19;24.50;99.90
24049;DHT22;12250;50.956;4.746;2023-08-17T12:12:47;24.50;99.90
24049;DHT22;12250;50.956;4.746;2023-08-17T12:15:13;24.50;99.90
24049;DHT22;12250;50.956;4.746;2023-08-17T12:17:49;24.30;99.90
24049;DHT22;12250;50.956;4.746;2023-08-17T12:20:19;24.50;99.90
24049;DHT22;12250;50.956;4.746;2023-08-17T12:22:46;24.60;99.90
24049;DHT22;12250;50.956;4.746;2023-08-17T12:25:11;24.70;99.90
24049;DHT22;12250;50.956;4.746;2023-08-17T12:27:37;24.70;99.90
24049;DHT22;12250;50.956;4.746;2023-08-17T12:30:03;24.60;99.90
24049;DHT22;12250;50.956;4.746;2023-08-17T12:32:29;24.30;99.90
24049;DHT22;12250;50.956;4.746;2023-08-17T12:34:55;24.50;99.90
24049;DHT22;12250;50.956;4.746;2023-08-17T12:37:21;24.60;99.90
24049;DHT22;12250;50.956;4.746;2023-08-17T12:39:47;25.10;99.90
24049;DHT22;12250;50.956;4.746;2023-08-17T12:42:13;25.30;99.90
24049;DHT22;12250;50.956;4.746;2023-08-17T12:44:43;25.50;99.90
24049;DHT22;12250;50.956;4.746;2023-08-17T12:47:09;25.60;99.90
24049;DHT22;12250;50.956;4.746;2023-08-17T12:49:35;25.30;99.90
24049;DHT22;12250;50.956;4.746;2023-08-17T12:52:01;24.80;99.90
24049;DHT22;12250;50.956;4.746;2023-08-17T12:54:27;24.40;99.90
24049;DHT22;12250;50.956;4.746;2023-08-17T12:56:53;24.40;99.90
24049;DHT22;12250;50.956;4.746;2023-08-17T12:59:18;24.70;99.90
24049;DHT22;12250;50.956;4.746;2023-08-17T13:01:44;24.70;99.90
24049;DHT22;12250;50.956;4.746;2023-08-17T13:04:09;24.70;99.90
24049;DHT22;12250;50.956;4.746;2023-08-17T13:06:35;24.80;99.90
24049;DHT22;12250;50.956;4.746;2023-08-17T13:09:01;24.80;99.90
24049;DHT22;12250;50.956;4.746;2023-08-17T13:11:27;24.90;99.90
24049;DHT22;12250;50.956;4.746;2023-08-17T13:13:53;25.10;99.90
24049;DHT22;12250;50.956;4.746;2023-08-17T13:16:18;25.30;99.90
24049;DHT22;12250;50.956;4.746;2023-08-17T13:18:44;25.00;99.90
24049;DHT22;12250;50.956;4.746;2023-08-17T13:21:10;24.70;99.90
24049;DHT22;12250;50.956;4.746;2023-08-17T13:23:36;24.70;99.90
24049;DHT22;12250;50.956;4.746;2023-08-17T13:26:01;24.50;99.90
24049;DHT22;12250;50.956;4.746;2023-08-17T13:28:27;24.50;99.90
24049;DHT22;12250;50.956;4.746;2023-08-17T13:30:52;24.70;99.90
24049;DHT22;12250;50.956;4.746;2023-08-17T13:33:18;24.60;99.90
24049;DHT22;12250;50.956;4.746;2023-08-17T13:35:44;24.50;99.90
24049;DHT22;12250;50.956;4.746;2023-08-17T13:38:10;24.30;99.90
24049;DHT22;12250;50.956;4.746;2023-08-17T13:40:36;23.90;99.90
24049;DHT22;12250;50.956;4.746;2023-08-17T13:43:04;24.00;99.90
24049;DHT22;12250;50.956;4.746;2023-08-17T13:45:33;24.20;99.90
24049;DHT22;12250;50.956;4.746;2023-08-17T13:47:59;24.50;99.90
24049;DHT22;12250;50.956;4.746;2023-08-17T13:50:26;24.60;99.90
24049;DHT22;12250;50.956;4.746;2023-08-17T13:52:52;24.90;99.90
24049;DHT22;12250;50.956;4.746;2023-08-17T13:55:17;25.00;99.90
24049;DHT22;12250;50.956;4.746;2023-08-17T13:57:43;25.20;99.90
24049;DHT22;12250;50.956;4.746;2023-08-17T14:00:10;25.40;99.90
24049;DHT22;12250;50.956;4.746;2023-08-17T14:02:36;25.30;99.90
24049;DHT22;12250;50.956;4.746;2023-08-17T14:05:01;25.10;99.90
24049;DHT22;12250;50.956;4.746;2023-08-17T14:07:27;24.90;99.90
24049;DHT22;12250;50.956;4.746;2023-08-17T14:09:53;25.20;99.90
24049;DHT22;12250;50.956;4.746;2023-08-17T14:12:18;25.60;99.90
24049;DHT22;12250;50.956;4.746;2023-08-17T14:14:44;26.00;99.90
24049;DHT22;12250;50.956;4.746;2023-08-17T14:17:09;26.30;99.90
24049;DHT22;12250;50.956;4.746;2023-08-17T14:19:35;26.40;99.90
24049;DHT22;12250;50.956;4.746;2023-08-17T14:22:01;26.50;99.90
24049;DHT22;12250;50.956;4.746;2023-08-17T14:24:27;26.40;99.90
24049;DHT22;12250;50.956;4.746;2023-08-17T14:26:53;26.50;99.90
24049;DHT22;12250;50.956;4.746;2023-08-17T14:29:18;26.50;99.90
24049;DHT22;12250;50.956;4.746;2023-08-17T14:31:44;26.50;99.80
24049;DHT22;12250;50.956;4.746;2023-08-17T14:34:10;26.40;99.80
24049;DHT22;12250;50.956;4.746;2023-08-17T14:36:35;26.50;99.90
24049;DHT22;12250;50.956;4.746;2023-08-17T14:39:01;26.30;99.90
24049;DHT22;12250;50.956;4.746;2023-08-17T14:41:27;26.40;99.90
24049;DHT22;12250;50.956;4.746;2023-08-17T14:43:58;26.50;99.90
24049;DHT22;12250;50.956;4.746;2023-08-17T14:46:25;26.40;99.90
24049;DHT22;12250;50.956;4.746;2023-08-17T14:48:50;26.30;99.90
24049;DHT22;12250;50.956;4.746;2023-08-17T14:51:16;26.30;99.90
24049;DHT22;12250;50.956;4.746;2023-08-17T14:53:42;26.30;99.90
24049;DHT22;12250;50.956;4.746;2023-08-17T14:56:08;26.30;99.90
24049;DHT22;12250;50.956;4.746;2023-08-17T14:58:33;26.10;99.90
24049;DHT22;12250;50.956;4.746;2023-08-17T15:00:59;26.00;99.90
24049;DHT22;12250;50.956;4.746;2023-08-17T15:03:24;25.90;99.90
24049;DHT22;12250;50.956;4.746;2023-08-17T15:05:50;25.40;99.90
24049;DHT22;12250;50.956;4.746;2023-08-17T15:08:16;25.20;99.90
24049;DHT22;12250;50.956;4.746;2023-08-17T15:10:42;25.20;99.90
24049;DHT22;12250;50.956;4.746;2023-08-17T15:13:08;25.10;99.90
24049;DHT22;12250;50.956;4.746;2023-08-17T15:15:33;25.10;99.90
24049;DHT22;12250;50.956;4.746;2023-08-17T15:17:59;25.10;99.90
24049;DHT22;12250;50.956;4.746;2023-08-17T15:20:25;25.10;99.90
24049;DHT22;12250;50.956;4.746;2023-08-17T15:22:52;25.10;99.90
24049;DHT22;12250;50.956;4.746;2023-08-17T15:25:20;25.20;99.90
24049;DHT22;12250;50.956;4.746;2023-08-17T15:27:46;25.20;99.90
24049;DHT22;12250;50.956;4.746;2023-08-17T15:30:12;25.30;99.90
24049;DHT22;12250;50.956;4.746;2023-08-17T15:32:37;25.30;99.90
24049;DHT22;12250;50.956;4.746;2023-08-17T15:35:06;25.20;99.90